Time;durP1;ratioP1;P1;durP2;ratioP2;P2;SDS_P1;SDS_P2;PMS_P1;PMS_P2;Temp;Humidity;BMP_temperature;BMP_pressure;BME280_temperature;BME280_humidity;BME280_pressure;Samples;Min_cycle;Max_cycle;Signal;HPM_P1;HPM_P2
2023/03/20 00:05:17;;;;;;;1.40;0.50;;;;;;;6.13;100.00;98051.75;22063833;27;20047;-55
2023/03/20 00:15:26;;;;;;;0.63;0.40;;;;;;;6.20;100.00;98052.47;22064091;27;20070;-52
2023/03/20 00:25:29;;;;;;;0.87;0.50;;;;;;;6.24;100.00;98055.50;22063621;27;20025;-54
2023/03/20 00:35:32;;;;;;;1.07;0.70;;;;;;;6.30;100.00;98064.50;22043309;27;20021;-55
2023/03/20 00:45:35;;;;;;;0.90;0.60;;;;;;;6.26;100.00;98066.81;22063441;27;20037;-56
2023/03/20 00:55:39;;;;;;;1.20;0.80;;;;;;;6.13;100.00;98067.88;22063571;27;20443;-55
2023/03/20 01:05:43;;;;;;;0.90;0.73;;;;;;;5.99;100.00;98072.63;22062762;27;20024;-56
2023/03/20 01:15:46;;;;;;;1.20;0.80;;;;;;;5.79;100.00;98061.34;22062627;27;20036;-54
2023/03/20 01:25:49;;;;;;;0.80;0.50;;;;;;;5.71;100.00;98067.84;22062348;27;20321;-56
2023/03/20 01:35:52;;;;;;;1.03;0.50;;;;;;;5.70;100.00;98075.09;22062125;27;20099;-55
2023/03/20 01:46:03;;;;;;;0.50;0.33;;;;;;;5.65;100.00;98066.91;22062206;27;20036;-56
2023/03/20 01:56:06;;;;;;;1.10;0.40;;;;;;;5.67;100.00;98072.84;22062228;27;20365;-56
2023/03/20 02:06:10;;;;;;;1.07;0.40;;;;;;;5.64;100.00;98062.59;22062034;27;20435;-56
2023/03/20 02:16:15;;;;;;;1.13;0.40;;;;;;;5.60;100.00;98074.81;22041953;27;20044;-55
2023/03/20 02:26:43;;;;;;;0.30;0.20;;;;;;;5.62;100.00;98080.78;22041416;27;20085;-55
2023/03/20 02:37:16;;;;;;;0.40;0.20;;;;;;;5.66;100.00;98084.66;22061518;27;20068;-55
2023/03/20 02:47:37;;;;;;;2.10;0.13;;;;;;;5.71;100.00;98081.28;22041801;27;20033;-55
2023/03/20 02:58:06;;;;;;;0.30;0.20;;;;;;;5.70;100.00;98096.56;22061210;27;20021;-56
2023/03/20 03:08:13;;;;;;;2.23;0.40;;;;;;;5.79;100.00;98106.97;22061194;27;20033;-55
2023/03/20 03:18:22;;;;;;;2.37;0.80;;;;;;;5.91;100.00;98107.84;22060973;27;20419;-55
2023/03/20 03:28:38;;;;;;;2.67;1.37;;;;;;;6.06;100.00;98116.28;22063173;27;20047;-56
2023/03/20 03:38:55;;;;;;;;;;;;;;;6.30;100.00;98124.41;22065256;27;20397;-55
2023/03/20 03:48:58;;;;;;;3.10;1.77;;;;;;;6.48;100.00;98130.72;22064920;27;19944;-56
2023/03/20 03:59:08;;;;;;;2.87;1.40;;;;;;;6.55;100.00;98134.13;22064400;27;20325;-53
2023/03/20 04:09:10;;;;;;;3.00;1.13;;;;;;;6.56;100.00;98138.44;22064085;27;20352;-55
2023/03/20 04:19:13;;;;;;;1.43;1.07;;;;;;;6.57;100.00;98143.59;22044134;27;20074;-54
2023/03/20 04:29:15;;;;;;;1.53;1.00;;;;;;;6.59;100.00;98135.28;22043979;27;20071;-54
2023/03/20 04:39:18;;;;;;;1.60;0.60;;;;;;;6.57;100.00;98132.03;22043448;27;20346;-56
2023/03/20 04:49:20;;;;;;;2.20;0.83;;;;;;;6.55;100.00;98128.75;22063241;27;20029;-56
2023/03/20 04:59:23;;;;;;;0.70;0.50;;;;;;;6.49;100.00;98135.06;22043651;27;20025;-56
2023/03/20 05:09:26;;;;;;;0.50;0.50;;;;;;;6.46;100.00;98139.03;22062924;27;20028;-56
2023/03/20 05:19:29;;;;;;;1.23;0.63;;;;;;;6.46;100.00;98146.28;22042880;27;20029;-56
2023/03/20 05:29:31;;;;;;;0.50;0.50;;;;;;;6.43;100.00;98124.19;22063211;27;20033;-55
2023/03/20 05:39:34;;;;;;;0.53;0.40;;;;;;;6.41;100.00;98145.09;22042723;27;20024;-55
2023/03/20 05:49:36;;;;;;;1.60;0.50;;;;;;;6.40;100.00;98142.63;22062019;27;20516;-56
2023/03/20 05:59:39;;;;;;;1.57;0.40;;;;;;;6.40;100.00;98170.31;22062238;26;20053;-54
2023/03/20 06:09:42;;;;;;;0.50;0.40;;;;;;;6.46;100.00;98165.09;22042182;27;20020;-56
2023/03/20 06:19:44;;;;;;;1.27;0.50;;;;;;;6.52;100.00;98180.25;22041845;27;20067;-56
2023/03/20 06:29:47;;;;;;;0.83;0.50;;;;;;;6.60;100.00;98171.87;22061704;27;20036;-57
2023/03/20 06:39:50;;;;;;;0.80;0.40;;;;;;;6.73;100.00;98170.84;22061371;27;20392;-55
2023/03/20 06:49:52;;;;;;;0.97;0.60;;;;;;;6.91;100.00;98168.03;22041685;27;20025;-57
2023/03/20 06:59:55;;;;;;;1.00;0.40;;;;;;;7.17;100.00;98181.22;22042944;27;20028;-55
2023/03/20 07:09:58;;;;;;;0.80;0.60;;;;;;;7.39;100.00;98184.94;22065813;27;20043;-57
2023/03/20 07:20:00;;;;;;;0.40;0.30;;;;;;;7.64;100.00;98195.41;22064860;27;20453;-56
2023/03/20 07:30:05;;;;;;;0.80;0.60;;;;;;;7.92;100.00;98203.75;22065206;27;20038;-54
2023/03/20 07:40:08;;;;;;;0.85;0.47;;;;;;;8.08;100.00;98210.28;22064513;27;20303;-57
2023/03/20 07:50:11;;;;;;;0.77;0.60;;;;;;;8.17;100.00;98229.56;22064266;27;20039;-57
2023/03/20 08:00:15;;;;;;;0.80;0.50;;;;;;;8.35;100.00;98250.94;22064276;27;20025;-57
2023/03/20 08:10:18;;;;;;;1.60;0.70;;;;;;;8.60;100.00;98255.97;22063652;27;20064;-57
2023/03/20 08:20:21;;;;;;;1.00;0.80;;;;;;;8.85;100.00;98262.06;22063105;27;20165;-57
2023/03/20 08:30:25;;;;;;;1.00;0.80;;;;;;;9.18;100.00;98244.25;22063654;27;20029;-57
2023/03/20 08:40:29;;;;;;;0.70;0.70;;;;;;;9.63;100.00;98245.97;22063061;27;20036;-56
2023/03/20 08:50:32;;;;;;;1.80;0.90;;;;;;;10.12;100.00;98240.63;22062895;27;20067;-57
2023/03/20 09:00:35;;;;;;;1.60;0.90;;;;;;;10.42;100.00;98244.75;22063205;27;20044;-56
2023/03/20 09:10:39;;;;;;;2.20;0.73;;;;;;;10.61;100.00;98234.41;22042886;27;20044;-57
2023/03/20 09:20:42;;;;;;;1.52;1.08;;;;;;;11.11;100.00;98240.50;22061671;27;20044;-57
2023/03/20 09:30:44;;;;;;;0.73;0.53;;;;;;;11.16;100.00;98221.59;22062326;27;20025;-57
2023/03/20 09:40:57;;;;;;;2.17;0.60;;;;;;;11.84;100.00;98230.91;22061766;27;20349;-58
2023/03/20 09:51:14;;;;;;;1.10;0.60;;;;;;;12.65;100.00;98247.72;22062363;27;20059;-57
2023/03/20 10:01:21;;;;;;;2.08;0.30;;;;;;;13.27;100.00;98256.69;22042290;27;20033;-57
2023/03/20 10:11:29;;;;;;;2.30;0.90;;;;;;;13.31;100.00;98251.53;22061573;27;20036;-57
2023/03/20 10:21:52;;;;;;;0.77;0.40;;;;;;;13.68;100.00;98253.13;22061441;27;20024;-57
2023/03/20 10:32:01;;;;;;;1.45;0.57;;;;;;;13.53;92.97;98252.06;22061693;27;20048;-57
2023/03/20 10:42:13;;;;;;;1.80;0.50;;;;;;;13.14;93.50;98249.91;22061491;27;20044;-57
2023/03/20 10:52:21;;;;;;;0.55;0.30;;;;;;;13.03;93.55;98265.38;22061341;27;20035;-56
2023/03/20 11:02:29;;;;;;;0.40;0.20;;;;;;;13.19;94.68;98266.19;22041177;27;20111;-57
2023/03/20 11:12:44;;;;;;;0.62;0.30;;;;;;;13.50;92.62;98262.66;22060699;27;20032;-57
2023/03/20 11:22:49;;;;;;;1.67;0.30;;;;;;;13.52;71.86;98264.00;22061060;27;20084;-57
2023/03/20 11:32:55;;;;;;;0.65;0.32;;;;;;;13.56;70.56;98256.13;22040351;27;20315;-57
2023/03/20 11:43:03;;;;;;;0.40;0.15;;;;;;;13.85;67.03;98247.34;22060725;27;20440;-57
2023/03/20 11:53:31;;;;;;;1.33;0.30;;;;;;;14.41;69.94;98244.34;22026203;27;20333;-57
2023/03/20 12:03:41;;;;;;;0.60;0.13;;;;;;;14.73;62.51;98234.13;22064277;27;20465;-57
2023/03/20 12:13:47;;;;;;;0.47;0.20;;;;;;;14.70;60.20;98237.41;22043226;27;20040;-56
2023/03/20 12:24:12;;;;;;;0.93;0.30;;;;;;;14.75;60.59;98204.72;22063849;27;20029;-57
2023/03/20 12:34:34;;;;;;;;;;;;;;;15.40;63.24;98206.31;22043693;27;20025;-57
2023/03/20 12:45:04;;;;;;;0.60;0.30;;;;;;;15.46;61.63;98198.88;22064296;27;19944;-57
2023/03/20 12:55:28;;;;;;;0.68;0.28;;;;;;;15.71;58.62;98187.69;22063068;27;20125;-56
2023/03/20 13:05:40;;;;;;;0.30;0.20;;;;;;;16.01;59.43;98182.19;22063488;27;20063;-57
2023/03/20 13:16:21;;;;;;;0.37;0.10;;;;;;;16.11;56.39;98167.59;22063489;27;20040;-55
2023/03/20 13:26:35;;;;;;;0.30;0.10;;;;;;;15.98;53.09;98152.75;21760247;27;20037;-56
2023/03/20 13:37:09;;;;;;;0.50;0.30;;;;;;;16.06;52.93;98142.03;21778897;27;20061;-57
2023/03/20 13:47:27;;;;;;;0.32;0.13;;;;;;;15.81;53.06;98132.25;21778538;27;20092;-57
2023/03/20 13:57:43;;;;;;;;;;;;;;;16.13;52.37;98121.72;21841484;27;20044;-57
2023/03/20 14:07:48;;;;;;;0.70;0.20;;;;;;;16.09;51.43;98116.06;21970104;27;19933;-57
2023/03/20 14:17:53;;;;;;;0.65;0.30;;;;;;;16.83;52.25;98117.34;21969472;27;20116;-57
2023/03/20 14:27:59;;;;;;;0.47;0.30;;;;;;;17.34;47.64;98121.09;22049895;27;20033;-57
2023/03/20 14:38:11;;;;;;;0.70;0.35;;;;;;;16.93;50.24;98107.06;22061602;27;20068;-57
2023/03/20 14:48:29;;;;;;;0.77;0.20;;;;;;;16.74;49.91;98100.84;22061824;27;20069;-57
2023/03/20 14:58:52;;;;;;;1.50;0.30;;;;;;;16.62;49.76;98089.59;22061389;27;20325;-57
2023/03/20 15:09:04;;;;;;;0.40;0.20;;;;;;;16.23;50.32;98089.66;22041150;27;20025;-56
2023/03/20 15:19:18;;;;;;;0.50;0.20;;;;;;;16.84;54.82;98078.81;22061236;27;20039;-57
2023/03/20 15:29:21;;;;;;;;;;;;;;;16.60;52.17;98077.03;22065554;27;20051;-57
2023/03/20 15:39:27;;;;;;;0.75;0.30;;;;;;;16.47;52.49;98077.00;22065017;27;19940;-57
2023/03/20 15:49:31;;;;;;;0.65;0.30;;;;;;;16.65;52.72;98064.41;22044592;27;20018;-57
2023/03/20 15:59:34;;;;;;;0.37;0.20;;;;;;;16.25;51.51;98065.63;22064044;27;20037;-57
2023/03/20 16:09:44;;;;;;;0.30;0.20;;;;;;;15.80;52.57;98059.75;22064219;26;20064;-56
2023/03/20 16:19:47;;;;;;;0.75;0.35;;;;;;;15.20;55.10;98035.72;22043943;27;20032;-57
2023/03/20 16:29:53;;;;;;;0.88;0.30;;;;;;;14.56;57.87;98027.66;22063944;27;20020;-57
2023/03/20 16:40:19;;;;;;;0.40;0.20;;;;;;;14.49;61.54;98016.31;22043786;27;20032;-56
2023/03/20 16:50:33;;;;;;;0.28;0.20;;;;;;;14.58;60.01;98022.78;22063170;27;20025;-56
2023/03/20 17:00:51;;;;;;;0.47;0.20;;;;;;;14.46;61.29;98034.03;22063219;26;20337;-56
2023/03/20 17:10:57;;;;;;;0.75;0.25;;;;;;;13.76;64.87;98031.56;22062871;27;20086;-55
2023/03/20 17:21:00;;;;;;;0.20;0.20;;;;;;;13.08;74.42;98031.09;22042754;27;20034;-57
2023/03/20 17:31:05;;;;;;;0.45;0.20;;;;;;;12.51;78.96;98042.09;22062574;27;20066;-55
2023/03/20 17:41:11;;;;;;;;;;;;;;;11.97;84.37;98038.03;22062669;27;20381;-57
2023/03/20 17:51:14;;;;;;;0.10;0.10;;;;;;;11.40;91.11;98039.81;22062609;27;20312;-55
2023/03/20 18:01:17;;;;;;;1.70;0.20;;;;;;;10.79;95.96;98022.22;22042242;27;20028;-56
2023/03/20 18:11:20;;;;;;;0.60;0.30;;;;;;;10.18;100.00;98020.72;22061950;27;20076;-56
2023/03/20 18:21:24;;;;;;;1.57;0.47;;;;;;;9.68;100.00;98032.72;22061356;27;20025;-55
2023/03/20 18:31:28;;;;;;;1.37;0.37;;;;;;;9.37;100.00;98040.47;21969604;27;20325;-55
2023/03/20 18:41:32;;;;;;;0.70;0.30;;;;;;;9.13;100.00;98038.06;21949865;27;20014;-55
2023/03/20 18:51:36;;;;;;;0.97;0.70;;;;;;;8.93;100.00;98037.81;21968880;27;20055;-55
2023/03/20 19:01:39;;;;;;;1.13;0.60;;;;;;;8.48;100.00;98034.22;21968282;27;20044;-55
2023/03/20 19:11:43;;;;;;;0.33;0.33;;;;;;;8.04;100.00;98048.34;21968402;27;20334;-56
2023/03/20 19:21:47;;;;;;;1.00;0.60;;;;;;;7.78;100.00;98056.00;21968063;27;20036;-55
2023/03/20 19:31:50;;;;;;;0.70;0.50;;;;;;;7.76;100.00;98063.50;21968209;27;20376;-53
2023/03/20 19:41:54;;;;;;;1.20;0.60;;;;;;;7.79;100.00;98056.81;21969034;27;20334;-55
2023/03/20 19:51:57;;;;;;;1.30;0.73;;;;;;;7.73;100.00;98047.00;21948830;27;20393;-54
2023/03/20 20:02:01;;;;;;;1.77;0.87;;;;;;;7.56;100.00;98047.78;21968263;27;20033;-55
2023/03/20 20:12:05;;;;;;;4.73;1.87;;;;;;;7.42;100.00;98043.75;21952901;27;20025;-56
2023/03/20 20:22:09;;;;;;;7.30;2.50;;;;;;;7.11;100.00;98040.47;21972681;27;20473;-55
2023/03/20 20:32:36;;;;;;;3.90;2.00;;;;;;;6.76;100.00;98034.09;21972209;27;20048;-55
2023/03/20 20:42:41;;;;;;;2.97;0.97;;;;;;;6.43;100.00;98040.91;21972355;27;20068;-54
2023/03/20 20:52:45;;;;;;;1.50;1.07;;;;;;;6.15;100.00;98032.72;21972388;27;20035;-55
2023/03/20 21:02:49;;;;;;;4.77;1.37;;;;;;;5.86;100.00;98030.66;21972097;27;20065;-55
2023/03/20 21:12:52;;;;;;;1.97;1.07;;;;;;;5.65;100.00;98025.84;21971349;27;20041;-55
2023/03/20 21:23:05;;;;;;;2.20;1.00;;;;;;;5.39;100.00;98009.91;21970429;27;20032;-53
2023/03/20 21:33:09;;;;;;;1.57;1.00;;;;;;;5.18;100.00;98019.28;21971344;27;20319;-53
2023/03/20 21:43:14;;;;;;;1.80;0.97;;;;;;;4.99;100.00;98015.81;21970950;27;20345;-54
2023/03/20 21:53:19;;;;;;;2.57;1.07;;;;;;;4.84;100.00;98015.38;21970167;27;20018;-56
2023/03/20 22:03:43;;;;;;;1.83;1.07;;;;;;;4.70;100.00;98012.00;21970172;27;20028;-56
2023/03/20 22:14:08;;;;;;;2.65;1.35;;;;;;;4.57;100.00;98016.47;21970234;27;20041;-55
2023/03/20 22:24:32;;;;;;;2.07;0.90;;;;;;;4.45;100.00;98020.91;21969305;27;20036;-55
2023/03/20 22:34:57;;;;;;;2.17;0.93;;;;;;;4.28;100.00;98018.00;21969096;27;20436;-53
2023/03/20 22:45:22;;;;;;;3.33;0.97;;;;;;;4.12;100.00;98026.59;21949311;27;20029;-55
2023/03/20 22:55:27;;;;;;;1.50;0.98;;;;;;;3.98;100.00;98015.19;21969037;27;20040;-56
2023/03/20 23:05:36;;;;;;;2.43;1.13;;;;;;;3.87;100.00;98008.69;21969064;27;20111;-55
2023/03/20 23:15:40;;;;;;;1.97;1.07;;;;;;;3.72;100.00;97990.28;21968712;27;20033;-54
2023/03/20 23:25:44;;;;;;;1.73;1.13;;;;;;;3.56;100.00;97978.28;21968290;27;20437;-56
2023/03/20 23:35:47;;;;;;;1.37;1.00;;;;;;;3.49;100.00;97958.78;21968695;27;20044;-54
2023/03/20 23:45:53;;;;;;;2.23;0.97;;;;;;;3.37;100.00;97955.97;21972778;27;20030;-54
2023/03/20 23:55:57;;;;;;;1.37;0.93;;;;;;;3.23;100.00;97944.56;21973685;27;20025;-55
